createdAt,value
2023-01-15T00:01:52.819Z,93221.34
2023-01-15T00:04:19.844Z,93230.50
2023-01-15T00:06:46.539Z,93225.16
2023-01-15T00:09:16.655Z,93216.78
2023-01-15T00:11:43.439Z,93226.63
2023-01-15T00:14:10.243Z,93214.38
2023-01-15T00:16:36.932Z,93208.91
2023-01-15T00:19:04.723Z,93204.53
2023-01-15T00:21:32.047Z,93207.81
2023-01-15T00:24:17.498Z,93205.91
2023-01-15T00:27:02.858Z,93206.16
2023-01-15T00:29:29.900Z,93183.31
2023-01-15T00:32:07.545Z,93183.22
2023-01-15T00:34:34.855Z,93181.69
2023-01-15T00:37:02.505Z,93179.75
2023-01-15T00:39:31.826Z,93154.19
2023-01-15T00:41:58.503Z,93164.88
2023-01-15T00:44:25.188Z,93160.22
2023-01-15T00:46:52.381Z,93157.63
2023-01-15T00:49:20.886Z,93145.72
2023-01-15T00:51:48.635Z,93161.41
2023-01-15T00:54:15.364Z,93142.09
2023-01-15T00:56:42.129Z,93140.84
2023-01-15T00:59:09.016Z,93134.28
2023-01-15T01:01:35.992Z,93132.81
2023-01-15T01:04:02.810Z,93120.41
2023-01-15T01:06:29.857Z,93133.41
2023-01-15T01:08:56.895Z,93141.44
2023-01-15T01:11:26.866Z,93138.09
2023-01-15T01:13:54.817Z,93143.69
2023-01-15T01:16:35.817Z,93139.47
2023-01-15T01:19:05.837Z,93133.59
2023-01-15T01:21:32.940Z,93123.06
2023-01-15T01:24:00.758Z,93116.59
2023-01-15T01:26:31.013Z,93123.84
2023-01-15T01:28:58.348Z,93139.88
2023-01-15T01:31:25.757Z,93122.66
2023-01-15T01:33:54.587Z,93117.66
2023-01-15T01:36:26.685Z,93110.09
2023-01-15T01:38:53.553Z,93098.00
2023-01-15T01:41:20.465Z,93104.13
2023-01-15T01:44:03.543Z,93088.06
2023-01-15T01:46:32.899Z,93089.75
2023-01-15T01:49:04.567Z,93086.19
2023-01-15T01:51:40.003Z,93083.41
2023-01-15T01:54:09.411Z,93076.47
2023-01-15T01:56:37.197Z,93064.91
2023-01-15T01:59:06.990Z,93056.53
2023-01-15T02:01:34.242Z,93048.25
2023-01-15T02:04:01.305Z,93057.66
2023-01-15T02:06:29.742Z,93070.16
2023-01-15T02:08:56.461Z,93065.34
2023-01-15T02:11:24.692Z,93055.47
2023-01-15T02:14:00.444Z,93044.38
2023-01-15T02:16:41.770Z,93036.97
2023-01-15T02:19:14.548Z,93043.53
2023-01-15T02:21:50.176Z,93045.25
2023-01-15T02:24:34.846Z,93037.13
2023-01-15T02:27:02.537Z,93038.94
2023-01-15T02:29:48.307Z,93020.06
2023-01-15T02:32:23.041Z,93024.91
2023-01-15T02:34:54.942Z,93023.69
2023-01-15T02:37:28.074Z,93021.75
2023-01-15T02:39:59.275Z,93016.41
2023-01-15T02:42:29.773Z,93028.69
2023-01-15T02:45:01.354Z,93012.59
2023-01-15T02:47:33.972Z,93005.28
2023-01-15T02:50:02.094Z,93014.22
2023-01-15T02:52:40.478Z,93006.63
2023-01-15T02:55:12.541Z,93001.28
2023-01-15T02:57:47.260Z,93009.72
2023-01-15T03:00:19.560Z,93006.72
2023-01-15T03:02:51.444Z,92991.38
2023-01-15T03:05:23.594Z,92996.81
2023-01-15T03:07:55.238Z,93000.78
2023-01-15T03:10:52.540Z,93003.44
2023-01-15T03:13:46.285Z,93008.44
2023-01-15T03:16:46.946Z,93007.66
2023-01-15T03:19:41.939Z,92993.88
2023-01-15T03:22:34.934Z,92989.72
2023-01-15T03:25:13.429Z,92998.09
2023-01-15T03:27:45.926Z,92995.16
2023-01-15T03:30:20.959Z,92986.38
2023-01-15T03:32:49.911Z,92976.50
2023-01-15T03:35:59.032Z,92977.81
2023-01-15T03:38:55.199Z,92980.25
2023-01-15T03:41:53.792Z,92972.81
2023-01-15T03:44:40.478Z,92973.78
2023-01-15T03:47:28.453Z,92977.28
2023-01-15T03:50:25.594Z,92971.81
2023-01-15T03:53:05.584Z,92973.41
2023-01-15T03:55:45.858Z,92974.91
2023-01-15T03:58:20.240Z,92979.81
2023-01-15T04:00:59.823Z,92966.47
2023-01-15T04:03:29.286Z,92961.53
2023-01-15T04:06:00.523Z,92978.06
2023-01-15T04:08:33.743Z,92958.00
2023-01-15T04:11:02.035Z,92960.25
2023-01-15T04:13:32.496Z,92962.41
2023-01-15T04:15:59.852Z,92970.78
2023-01-15T04:18:26.860Z,92950.94
2023-01-15T04:20:55.683Z,92964.75
2023-01-15T04:23:23.358Z,92936.13
2023-01-15T04:25:50.009Z,92945.44
2023-01-15T04:28:16.646Z,92958.41
2023-01-15T04:30:43.697Z,92947.53
2023-01-15T04:33:11.378Z,92962.69
2023-01-15T04:35:39.281Z,92937.53
2023-01-15T04:38:05.930Z,92945.81
2023-01-15T04:40:55.629Z,92938.66
2023-01-15T04:43:48.171Z,92932.63
2023-01-15T04:46:14.974Z,92912.47
2023-01-15T04:48:41.687Z,92920.06
2023-01-15T04:51:08.323Z,92901.09
2023-01-15T04:53:34.937Z,92895.09
2023-01-15T04:56:03.546Z,92884.16
2023-01-15T04:58:30.681Z,92874.16
2023-01-15T05:01:00.694Z,92882.34
2023-01-15T05:03:31.326Z,92881.13
2023-01-15T05:06:02.920Z,92878.38
2023-01-15T05:08:29.556Z,92877.69
2023-01-15T05:10:56.562Z,92890.78
2023-01-15T05:13:23.187Z,92884.66
2023-01-15T05:15:49.849Z,92872.50
2023-01-15T05:18:16.593Z,92877.50
2023-01-15T05:20:43.671Z,92868.28
2023-01-15T05:23:10.283Z,92869.69
2023-01-15T05:25:37.650Z,92866.59
2023-01-15T05:28:04.618Z,92878.84
2023-01-15T05:30:31.371Z,92869.19
2023-01-15T05:32:58.022Z,92884.09
2023-01-15T05:35:24.660Z,92869.91
2023-01-15T05:37:51.679Z,92874.41
2023-01-15T05:40:18.364Z,92881.31
2023-01-15T05:42:45.047Z,92878.72
2023-01-15T05:45:11.685Z,92878.72
2023-01-15T05:47:38.352Z,92877.53
2023-01-15T05:50:05.416Z,92885.97
2023-01-15T05:52:32.030Z,92875.69
2023-01-15T05:54:58.686Z,92878.34
2023-01-15T05:57:25.308Z,92903.44
2023-01-15T05:59:53.402Z,92900.69
2023-01-15T06:02:20.391Z,92894.63
2023-01-15T06:04:47.086Z,92909.75
2023-01-15T06:07:13.848Z,92911.28
2023-01-15T06:09:40.477Z,92909.41
2023-01-15T06:12:07.209Z,92882.34
2023-01-15T06:14:33.972Z,92896.56
2023-01-15T06:17:00.613Z,92893.47
2023-01-15T06:19:27.974Z,92909.75
2023-01-15T06:21:54.643Z,92902.34
2023-01-15T06:24:21.339Z,92888.25
2023-01-15T06:26:48.051Z,92891.50
2023-01-15T06:29:18.642Z,92896.94
2023-01-15T06:31:45.665Z,92907.19
2023-01-15T06:34:12.343Z,92902.88
2023-01-15T06:36:39.006Z,92890.31
2023-01-15T06:39:05.673Z,92890.66
2023-01-15T06:41:51.009Z,92885.22
2023-01-15T06:44:37.274Z,92886.34
2023-01-15T06:47:23.628Z,92884.81
2023-01-15T06:49:53.621Z,92908.84
2023-01-15T06:52:21.045Z,92892.38
2023-01-15T06:54:47.867Z,92887.22
2023-01-15T06:57:14.566Z,92893.31
2023-01-15T06:59:41.307Z,92891.19
2023-01-15T07:02:07.985Z,92929.91
2023-01-15T07:04:34.629Z,92946.34
2023-01-15T07:07:01.272Z,92943.66
2023-01-15T07:09:27.997Z,92959.63
2023-01-15T07:11:54.704Z,92965.78
2023-01-15T07:14:28.056Z,92960.94
2023-01-15T07:16:55.527Z,92955.75
2023-01-15T07:19:22.242Z,92975.66
2023-01-15T07:21:49.006Z,92986.53
2023-01-15T07:24:17.027Z,92983.16
2023-01-15T07:26:44.191Z,92984.41
2023-01-15T07:29:10.899Z,93003.50
2023-01-15T07:31:38.069Z,92994.84
2023-01-15T07:34:05.272Z,92993.38
2023-01-15T07:36:32.277Z,93002.03
2023-01-15T07:38:58.959Z,93009.03
2023-01-15T07:41:44.318Z,93007.34
2023-01-15T07:44:30.610Z,93015.53
2023-01-15T07:47:15.846Z,93018.31
2023-01-15T07:49:46.497Z,93046.81
2023-01-15T07:52:14.623Z,93045.34
2023-01-15T07:54:41.456Z,93054.28
2023-01-15T07:57:08.769Z,93056.13
2023-01-15T07:59:35.452Z,93053.41
2023-01-15T08:02:02.266Z,93060.25
2023-01-15T08:04:28.939Z,93063.69
2023-01-15T08:06:55.623Z,93077.63
2023-01-15T08:09:22.363Z,93072.09
2023-01-15T08:12:07.459Z,93081.50
2023-01-15T08:14:52.632Z,93094.38
2023-01-15T08:17:19.319Z,93109.91
2023-01-15T08:19:45.946Z,93109.50
2023-01-15T08:22:12.530Z,93111.69
2023-01-15T08:24:39.232Z,93112.19
2023-01-15T08:27:05.955Z,93112.38
2023-01-15T08:29:32.650Z,93119.88
2023-01-15T08:31:59.266Z,93122.53
2023-01-15T08:34:26.304Z,93122.25
2023-01-15T08:36:59.970Z,93121.31
2023-01-15T08:39:28.004Z,93139.47
2023-01-15T08:41:56.366Z,93133.22
2023-01-15T08:44:24.284Z,93130.91
2023-01-15T08:46:52.114Z,93139.16
2023-01-15T08:49:20.274Z,93137.47
2023-01-15T08:51:50.008Z,93146.50
2023-01-15T08:54:20.938Z,93142.19
2023-01-15T08:56:48.087Z,93151.34
2023-01-15T08:59:14.715Z,93147.28
2023-01-15T09:01:41.828Z,93134.06
2023-01-15T09:04:13.235Z,93151.34
2023-01-15T09:06:39.961Z,93142.50
2023-01-15T09:09:06.717Z,93151.69
2023-01-15T09:11:33.377Z,93167.28
2023-01-15T09:14:00.035Z,93179.31
2023-01-15T09:16:27.924Z,93161.34
2023-01-15T09:18:54.699Z,93178.66
2023-01-15T09:21:21.371Z,93181.31
2023-01-15T09:23:48.057Z,93173.81
2023-01-15T09:26:28.421Z,93188.81
2023-01-15T09:28:55.611Z,93194.91
2023-01-15T09:31:23.673Z,93178.81
2023-01-15T09:33:50.565Z,93175.38
2023-01-15T09:36:19.882Z,93189.44
2023-01-15T09:38:46.565Z,93187.56
2023-01-15T09:41:33.946Z,93201.75
2023-01-15T09:44:11.862Z,93202.84
2023-01-15T09:47:04.307Z,93217.22
2023-01-15T09:49:49.366Z,93218.00
2023-01-15T09:52:46.112Z,93218.94
2023-01-15T09:55:48.804Z,93228.75
2023-01-15T09:58:19.866Z,93240.31
2023-01-15T10:00:51.721Z,93244.06
2023-01-15T10:03:25.393Z,93243.44
2023-01-15T10:06:14.093Z,93250.47
2023-01-15T10:08:46.197Z,93250.78
2023-01-15T10:11:15.630Z,93252.50
2023-01-15T10:14:05.426Z,93246.72
2023-01-15T10:16:35.810Z,93247.34
2023-01-15T10:19:04.079Z,93246.25
2023-01-15T10:21:48.086Z,93243.59
2023-01-15T10:24:19.521Z,93238.28
2023-01-15T10:26:56.561Z,93244.69
2023-01-15T10:29:54.242Z,93241.25
2023-01-15T10:33:04.018Z,93230.81
2023-01-15T10:35:45.755Z,93262.78
2023-01-15T10:38:24.470Z,93270.44
2023-01-15T10:41:26.731Z,93272.16
2023-01-15T10:44:10.490Z,93277.16
2023-01-15T10:46:40.528Z,93271.38
2023-01-15T10:49:16.011Z,93286.50
2023-01-15T10:51:54.418Z,93284.94
2023-01-15T10:54:32.152Z,93267.13
2023-01-15T10:57:27.253Z,93278.53
2023-01-15T10:59:58.805Z,93279.63
2023-01-15T11:02:38.015Z,93293.38
2023-01-15T11:05:05.203Z,93283.06
2023-01-15T11:10:41.544Z,93267.00
2023-01-15T11:13:44.854Z,93272.94
2023-01-15T11:16:35.906Z,93274.66
2023-01-15T11:19:24.526Z,93293.69
2023-01-15T11:21:54.162Z,93289.19
2023-01-15T11:24:21.009Z,93297.59
2023-01-15T11:26:51.458Z,93306.34
2023-01-15T11:29:30.043Z,93309.00
2023-01-15T11:31:56.776Z,93318.22
2023-01-15T11:34:24.285Z,93331.19
2023-01-15T11:37:05.260Z,93333.81
2023-01-15T11:39:32.487Z,93346.75
2023-01-15T11:42:23.413Z,93349.81
2023-01-15T11:45:16.341Z,93358.78
2023-01-15T11:48:14.785Z,93360.69
2023-01-15T11:50:56.915Z,93371.25
2023-01-15T11:53:34.607Z,93387.25
2023-01-15T11:56:06.603Z,93400.88
2023-01-15T11:58:40.211Z,93402.94
2023-01-15T12:01:07.432Z,93405.66
2023-01-15T12:03:36.244Z,93420.19
2023-01-15T12:06:08.058Z,93433.66
2023-01-15T12:09:12.440Z,93429.75
2023-01-15T12:11:50.901Z,93431.72
2023-01-15T12:14:39.188Z,93440.94
2023-01-15T12:17:37.664Z,93446.69
2023-01-15T12:20:16.462Z,93439.53
2023-01-15T12:22:55.233Z,93442.31
2023-01-15T12:25:33.193Z,93461.78
2023-01-15T12:28:14.260Z,93455.91
2023-01-15T12:30:52.994Z,93454.47
2023-01-15T12:34:01.374Z,93466.41
2023-01-15T12:36:43.150Z,93476.69
2023-01-15T12:39:18.791Z,93479.34
2023-01-15T12:42:08.636Z,93476.19
2023-01-15T12:45:04.139Z,93485.22
2023-01-15T12:47:46.772Z,93481.00
2023-01-15T12:50:32.330Z,93486.56
2023-01-15T12:53:20.188Z,93498.31
2023-01-15T12:55:54.009Z,93491.47
2023-01-15T12:58:31.392Z,93490.09
2023-01-15T13:01:14.080Z,93488.94
2023-01-15T13:03:53.936Z,93500.09
2023-01-15T13:06:25.669Z,93504.50
2023-01-15T13:09:15.983Z,93523.78
2023-01-15T13:11:42.663Z,93517.03
2023-01-15T13:14:17.280Z,93521.16
2023-01-15T13:17:05.297Z,93528.13
2023-01-15T13:19:49.194Z,93521.53
2023-01-15T13:22:25.085Z,93515.97
2023-01-15T13:25:21.159Z,93533.97
2023-01-15T13:28:10.361Z,93524.38
2023-01-15T13:30:43.106Z,93526.44
2023-01-15T13:33:25.121Z,93530.53
2023-01-15T13:35:57.578Z,93533.88
2023-01-15T13:38:27.199Z,93531.25
2023-01-15T13:40:57.194Z,93530.63
2023-01-15T13:43:32.565Z,93524.09
2023-01-15T13:45:59.988Z,93523.19
2023-01-15T13:48:36.193Z,93538.38
2023-01-15T13:51:05.813Z,93537.09
2023-01-15T13:53:38.285Z,93536.44
2023-01-15T13:56:07.876Z,93541.91
2023-01-15T13:59:07.306Z,93544.47
2023-01-15T14:01:36.120Z,93555.25
2023-01-15T14:04:18.024Z,93560.44
2023-01-15T14:06:51.683Z,93562.78
2023-01-15T14:09:18.238Z,93554.06
2023-01-15T14:11:47.679Z,93566.72
2023-01-15T14:14:29.495Z,93559.94
2023-01-15T14:16:59.132Z,93563.25
2023-01-15T14:19:47.070Z,93571.59
2023-01-15T14:22:36.780Z,93564.50
2023-01-15T14:25:22.198Z,93562.53
2023-01-15T14:28:14.391Z,93564.72
2023-01-15T14:30:47.483Z,93564.41
2023-01-15T14:33:32.605Z,93573.13
2023-01-15T14:36:11.008Z,93578.81
2023-01-15T14:38:48.043Z,93566.78
2023-01-15T14:41:15.035Z,93567.97
2023-01-15T14:43:49.094Z,93573.75
2023-01-15T14:46:25.262Z,93583.94
2023-01-15T14:48:51.969Z,93585.50
2023-01-15T14:51:27.394Z,93580.50
2023-01-15T14:54:08.078Z,93577.56
2023-01-15T14:56:37.740Z,93580.59
2023-01-15T14:59:26.428Z,93586.81
2023-01-15T15:02:13.465Z,93585.19
2023-01-15T15:04:48.847Z,93579.69
2023-01-15T15:07:18.986Z,93587.63
2023-01-15T15:09:58.027Z,93578.53
2023-01-15T15:12:39.401Z,93581.09
2023-01-15T15:15:24.790Z,93574.66
2023-01-15T15:18:13.727Z,93581.38
2023-01-15T15:20:58.711Z,93587.84
2023-01-15T15:23:37.506Z,93590.63
2023-01-15T15:26:23.943Z,93586.50
2023-01-15T15:29:04.834Z,93588.34
2023-01-15T15:31:37.169Z,93584.53
2023-01-15T15:34:06.721Z,93566.28
2023-01-15T15:36:39.172Z,93570.81
2023-01-15T15:39:44.429Z,93570.63
2023-01-15T15:42:44.402Z,93571.22
2023-01-15T15:45:42.835Z,93579.44
2023-01-15T15:48:32.015Z,93575.91
2023-01-15T15:50:59.683Z,93579.13
2023-01-15T15:53:26.310Z,93578.16
2023-01-15T15:55:55.054Z,93585.63
2023-01-15T15:58:40.076Z,93585.22
2023-01-15T16:01:11.711Z,93568.56
2023-01-15T16:03:47.042Z,93582.28
2023-01-15T16:06:20.584Z,93572.56
2023-01-15T16:08:56.441Z,93585.00
2023-01-15T16:11:25.712Z,93583.72
2023-01-15T16:13:54.604Z,93590.88
2023-01-15T16:16:22.047Z,93594.31
2023-01-15T16:18:52.591Z,93590.00
2023-01-15T16:21:26.729Z,93588.16
2023-01-15T16:24:04.499Z,93592.94
2023-01-15T16:26:45.851Z,93597.81
2023-01-15T16:29:21.972Z,93592.94
2023-01-15T16:31:48.772Z,93583.50
2023-01-15T16:34:22.197Z,93580.16
2023-01-15T16:36:48.934Z,93591.03
2023-01-15T16:39:27.800Z,93584.78
2023-01-15T16:42:02.147Z,93580.06
2023-01-15T16:44:34.721Z,93575.06
2023-01-15T16:47:02.274Z,93568.78
2023-01-15T16:49:31.867Z,93572.72
2023-01-15T16:52:00.855Z,93572.72
2023-01-15T16:54:30.624Z,93577.50
2023-01-15T16:57:01.837Z,93577.00
2023-01-15T16:59:28.433Z,93571.72
2023-01-15T17:02:02.377Z,93569.38
2023-01-15T17:04:41.400Z,93567.00
2023-01-15T17:07:14.104Z,93568.59
2023-01-15T17:09:55.899Z,93556.53
2023-01-15T17:12:43.367Z,93565.44
2023-01-15T17:15:19.928Z,93563.88
2023-01-15T17:17:47.431Z,93567.59
2023-01-15T17:20:15.128Z,93566.81
2023-01-15T17:22:45.012Z,93561.03
2023-01-15T17:25:31.601Z,93559.94
2023-01-15T17:27:59.790Z,93558.88
2023-01-15T17:30:34.637Z,93557.03
2023-01-15T17:33:03.056Z,93564.44
2023-01-15T17:35:41.265Z,93570.50
2023-01-15T17:38:11.841Z,93563.47
2023-01-15T17:40:38.850Z,93560.53
2023-01-15T17:43:05.811Z,93561.31
2023-01-15T17:45:33.989Z,93562.19
2023-01-15T17:48:04.107Z,93549.56
2023-01-15T17:50:30.892Z,93551.22
2023-01-15T17:52:57.558Z,93551.50
2023-01-15T17:55:42.967Z,93546.78
2023-01-15T17:58:31.242Z,93541.50
2023-01-15T18:01:17.152Z,93541.59
2023-01-15T18:04:06.573Z,93536.81
2023-01-15T18:06:34.067Z,93534.25
2023-01-15T18:09:03.674Z,93523.88
2023-01-15T18:11:30.457Z,93527.97
2023-01-15T18:13:57.927Z,93527.41
2023-01-15T18:16:26.320Z,93537.47
2023-01-15T18:18:54.131Z,93538.75
2023-01-15T18:21:21.257Z,93539.03
2023-01-15T18:23:47.916Z,93542.47
2023-01-15T18:26:14.556Z,93532.47
2023-01-15T18:28:41.218Z,93538.84
2023-01-15T18:31:08.148Z,93530.41
2023-01-15T18:33:35.105Z,93528.28
2023-01-15T18:36:06.384Z,93532.84
2023-01-15T18:38:35.505Z,93529.19
2023-01-15T18:41:10.844Z,93527.34
2023-01-15T18:43:56.268Z,93531.34
2023-01-15T18:46:41.445Z,93519.81
2023-01-15T18:49:08.092Z,93526.94
2023-01-15T18:51:34.776Z,93526.72
2023-01-15T18:54:01.501Z,93523.88
2023-01-15T18:56:40.250Z,93518.59
2023-01-15T18:59:08.944Z,93531.81
2023-01-15T19:01:36.276Z,93529.66
2023-01-15T19:04:06.755Z,93529.16
2023-01-15T19:06:34.631Z,93525.53
2023-01-15T19:09:01.720Z,93524.72
2023-01-15T19:11:29.338Z,93516.59
2023-01-15T19:14:15.643Z,93506.34
2023-01-15T19:17:01.581Z,93515.81
2023-01-15T19:19:28.321Z,93511.03
2023-01-15T19:22:14.060Z,93521.81
2023-01-15T19:24:40.713Z,93512.03
2023-01-15T19:27:07.685Z,93514.88
2023-01-15T19:29:34.710Z,93514.31
2023-01-15T19:32:04.081Z,93519.09
2023-01-15T19:34:33.848Z,93520.38
2023-01-15T19:37:01.080Z,93521.94
2023-01-15T19:39:29.054Z,93520.78
2023-01-15T19:42:15.992Z,93524.72
2023-01-15T19:45:01.202Z,93520.78
2023-01-15T19:47:57.064Z,93521.84
2023-01-15T19:50:43.519Z,93521.06
2023-01-15T19:53:11.194Z,93510.72
2023-01-15T19:55:40.456Z,93511.28
2023-01-15T19:58:09.356Z,93509.72
2023-01-15T20:00:37.830Z,93501.34
2023-01-15T20:03:05.671Z,93497.13
2023-01-15T20:05:33.031Z,93499.25
2023-01-15T20:07:59.707Z,93501.91
2023-01-15T20:10:28.784Z,93481.94
2023-01-15T20:13:14.223Z,93486.91
2023-01-15T20:15:43.819Z,93484.34
2023-01-15T20:18:10.503Z,93477.13
2023-01-15T20:20:38.668Z,93477.13
2023-01-15T20:23:05.893Z,93480.59
2023-01-15T20:25:33.011Z,93479.53
2023-01-15T20:28:00.134Z,93476.69
2023-01-15T20:30:28.008Z,93470.91
2023-01-15T20:32:58.128Z,93478.31
2023-01-15T20:35:29.238Z,93482.81
2023-01-15T20:37:55.853Z,93474.97
2023-01-15T20:40:24.370Z,93475.19
2023-01-15T20:43:10.554Z,93474.41
2023-01-15T20:45:37.651Z,93453.56
2023-01-15T20:48:13.910Z,93453.88
2023-01-15T20:51:02.560Z,93446.22
2023-01-15T20:53:33.990Z,93439.09
2023-01-15T20:56:02.555Z,93450.72
2023-01-15T20:58:29.452Z,93454.44
2023-01-15T21:01:03.343Z,93446.34
2023-01-15T21:03:30.058Z,93432.44
2023-01-15T21:05:58.158Z,93442.75
2023-01-15T21:08:25.094Z,93436.19
2023-01-15T21:10:53.310Z,93431.72
2023-01-15T21:13:22.814Z,93430.72
2023-01-15T21:16:00.718Z,93430.72
2023-01-15T21:18:29.092Z,93415.66
2023-01-15T21:20:55.824Z,93412.47
2023-01-15T21:23:23.470Z,93414.03
2023-01-15T21:25:50.400Z,93414.03
2023-01-15T21:28:17.198Z,93419.31
2023-01-15T21:30:44.799Z,93414.53
2023-01-15T21:33:11.876Z,93419.75
2023-01-15T21:35:40.522Z,93419.16
2023-01-15T21:38:08.714Z,93416.91
2023-01-15T21:40:39.188Z,93414.78
2023-01-15T21:43:25.026Z,93417.41
2023-01-15T21:45:51.800Z,93396.38
2023-01-15T21:48:19.080Z,93391.41
2023-01-15T21:50:45.884Z,93391.72
2023-01-15T21:53:12.558Z,93378.81
2023-01-15T21:55:39.236Z,93373.59
2023-01-15T21:58:05.885Z,93365.47
2023-01-15T22:00:32.601Z,93357.44
2023-01-15T22:02:59.398Z,93357.44
2023-01-15T22:05:26.082Z,93352.09
2023-01-15T22:07:53.191Z,93348.66
2023-01-15T22:10:19.898Z,93343.38
2023-01-15T22:12:46.526Z,93327.06
2023-01-15T22:15:13.244Z,93323.16
2023-01-15T22:17:39.903Z,93314.44
2023-01-15T22:20:07.248Z,93313.09
2023-01-15T22:22:36.409Z,93313.31
2023-01-15T22:25:05.591Z,93303.53
2023-01-15T22:27:34.557Z,93304.09
2023-01-15T22:30:01.394Z,93296.47
2023-01-15T22:32:28.184Z,93297.09
2023-01-15T22:34:54.816Z,93289.19
2023-01-15T22:37:21.507Z,93276.94
2023-01-15T22:39:49.333Z,93274.03
2023-01-15T22:42:24.880Z,93269.44
2023-01-15T22:44:51.803Z,93262.13
2023-01-15T22:47:19.624Z,93258.91
2023-01-15T22:49:46.560Z,93266.22
2023-01-15T22:52:13.439Z,93268.59
2023-01-15T22:54:41.399Z,93259.09
2023-01-15T22:57:08.028Z,93258.25
2023-01-15T22:59:34.769Z,93253.53
2023-01-15T23:02:01.786Z,93257.44
2023-01-15T23:04:28.672Z,93254.69
2023-01-15T23:06:55.466Z,93242.28
2023-01-15T23:09:23.480Z,93243.38
2023-01-15T23:11:51.566Z,93241.78
2023-01-15T23:14:19.752Z,93232.03
2023-01-15T23:16:46.703Z,93241.00
2023-01-15T23:19:14.333Z,93231.25
2023-01-15T23:21:41.420Z,93230.38
2023-01-15T23:24:08.706Z,93224.22
2023-01-15T23:26:35.968Z,93220.59
2023-01-15T23:29:03.433Z,93220.13
2023-01-15T23:31:30.171Z,93220.13
2023-01-15T23:33:56.830Z,93219.16
2023-01-15T23:36:24.225Z,93204.28
2023-01-15T23:38:50.952Z,93197.28
2023-01-15T23:41:40.284Z,93200.69
2023-01-15T23:44:32.009Z,93183.28
2023-01-15T23:46:58.748Z,93184.66
2023-01-15T23:49:25.705Z,93176.75
2023-01-15T23:51:52.384Z,93172.75
2023-01-15T23:54:19.037Z,93162.78
2023-01-15T23:56:46.320Z,93159.56
2023-01-15T23:59:13.055Z,93150.06
